Time;durP1;ratioP1;P1;durP2;ratioP2;P2;SDS_P1;SDS_P2;PMS_P1;PMS_P2;Temp;Humidity;BMP_temperature;BMP_pressure;BME280_temperature;BME280_humidity;BME280_pressure;Samples;Min_cycle;Max_cycle;Signal;HPM_P1;HPM_P2
2022/08/03 00:01:45;;;;;;;5.53;3.67;;;;;;;21.30;73.39;101545.94;5088856;28;20223;-71
2022/08/03 00:04:11;;;;;;;4.67;4.27;;;;;;;21.29;73.32;101547.69;5092741;28;20587;-71
2022/08/03 00:06:37;;;;;;;6.17;4.07;;;;;;;21.28;73.49;101550.34;5092672;28;20553;-71
2022/08/03 00:09:04;;;;;;;5.30;4.00;;;;;;;21.25;73.81;101551.22;5091414;28;20261;-71
2022/08/03 00:11:30;;;;;;;4.43;3.87;;;;;;;21.21;74.09;101552.16;5092561;28;20235;-69
2022/08/03 00:13:55;;;;;;;4.33;3.87;;;;;;;21.17;74.38;101547.84;5082720;28;20185;-71
2022/08/03 00:16:21;;;;;;;6.33;4.00;;;;;;;21.10;75.45;101543.59;5087268;28;20288;-71
2022/08/03 00:18:46;;;;;;;7.63;4.40;;;;;;;21.09;74.63;101552.28;5088477;28;20283;-70
2022/08/03 00:21:11;;;;;;;3.97;3.67;;;;;;;21.07;75.00;101553.19;5092286;28;20204;-71
2022/08/03 00:23:37;;;;;;;5.93;4.13;;;;;;;21.06;74.80;101548.88;5090895;28;20234;-71
2022/08/03 00:26:03;;;;;;;4.20;3.87;;;;;;;21.03;75.59;101544.56;5090992;28;20203;-69
2022/08/03 00:28:29;;;;;;;5.80;4.13;;;;;;;20.97;75.52;101543.75;5092016;28;20275;-70
2022/08/03 00:30:54;;;;;;;5.27;4.30;;;;;;;20.94;75.61;101530.75;5092200;28;20231;-69
2022/08/03 00:33:20;;;;;;;5.30;4.13;;;;;;;20.90;75.75;101537.75;5090944;28;20950;-71
2022/08/03 00:35:46;;;;;;;4.93;4.30;;;;;;;20.95;75.24;101540.28;5092271;28;20173;-71
2022/08/03 00:38:11;;;;;;;5.27;4.53;;;;;;;20.91;75.47;101538.63;5090363;28;20713;-71
2022/08/03 00:40:36;;;;;;;5.10;4.70;;;;;;;20.88;75.49;101536.03;5092068;28;20251;-71
2022/08/03 00:43:04;;;;;;;4.73;4.17;;;;;;;20.87;75.54;101542.97;5086976;28;20203;-71
2022/08/03 00:45:32;;;;;;;5.17;4.67;;;;;;;20.80;76.44;101533.50;5077730;28;20687;-71
2022/08/03 00:47:59;;;;;;;4.73;4.33;;;;;;;20.74;76.69;101532.72;5070654;28;20213;-70
2022/08/03 00:50:28;;;;;;;4.57;4.17;;;;;;;20.67;76.55;101529.31;5072238;28;20583;-71
2022/08/03 00:52:55;;;;;;;5.87;4.97;;;;;;;20.66;76.64;101529.31;5064078;28;20823;-70
2022/08/03 00:55:22;;;;;;;6.33;4.67;;;;;;;20.62;75.99;101531.09;5064962;28;20276;-70
2022/08/03 00:57:48;;;;;;;8.10;4.60;;;;;;;20.56;76.50;101532.91;5071680;28;20602;-70
2022/08/03 01:00:17;;;;;;;5.53;5.03;;;;;;;20.54;76.63;101524.25;5071685;28;20188;-69
2022/08/03 01:02:42;;;;;;;5.70;5.10;;;;;;;20.44;76.49;101526.09;5070520;28;20185;-71
2022/08/03 01:05:09;;;;;;;6.33;5.00;;;;;;;20.43;76.60;101526.09;5071847;28;20716;-71
2022/08/03 01:07:56;;;;;;;6.13;5.13;;;;;;;20.33;76.58;101524.47;5071490;28;20247;-71
2022/08/03 01:10:34;;;;;;;5.73;4.70;;;;;;;20.30;76.95;101527.06;5071473;28;20745;-70
2022/08/03 01:13:21;;;;;;;7.83;5.03;;;;;;;20.33;76.79;101525.34;5071621;28;20188;-71
2022/08/03 01:15:56;;;;;;;5.30;4.80;;;;;;;20.30;76.31;101530.56;5070657;28;20595;-71
2022/08/03 01:18:25;;;;;;;4.97;4.57;;;;;;;20.27;76.74;101529.72;5071142;28;20621;-69
2022/08/03 01:20:54;;;;;;;5.90;5.13;;;;;;;20.21;76.94;101530.63;5073673;28;20221;-68
2022/08/03 01:23:48;;;;;;;5.27;4.87;;;;;;;20.17;77.13;101531.53;5064052;28;20193;-70
2022/08/03 01:26:31;;;;;;;4.83;4.43;;;;;;;20.17;76.34;101528.94;5070356;28;20196;-71
2022/08/03 01:29:32;;;;;;;5.23;4.73;;;;;;;20.15;76.23;101530.69;5077068;28;20682;-70
2022/08/03 01:32:01;;;;;;;6.33;4.77;;;;;;;20.10;76.50;101529.00;5076455;28;20205;-71
2022/08/03 01:34:31;;;;;;;5.30;4.40;;;;;;;20.07;76.48;101526.38;5073925;28;20188;-71
2022/08/03 01:37:01;;;;;;;5.20;4.43;;;;;;;20.03;76.81;101524.72;5070662;28;20192;-71
2022/08/03 01:39:29;;;;;;;5.70;5.20;;;;;;;19.91;77.88;101528.28;5071034;28;20184;-70
2022/08/03 01:42:04;;;;;;;5.57;5.00;;;;;;;19.84;78.30;101529.19;5071976;28;20204;-71
2022/08/03 01:44:37;;;;;;;5.43;4.70;;;;;;;19.77;78.07;101529.22;5067118;28;20189;-71
2022/08/03 01:47:03;;;;;;;5.47;4.97;;;;;;;19.74;78.18;101519.72;5071313;28;20177;-69
2022/08/03 01:49:32;;;;;;;5.63;4.77;;;;;;;19.68;78.47;101524.97;5071801;28;20197;-70
2022/08/03 01:51:58;;;;;;;5.50;4.97;;;;;;;19.62;79.29;101525.00;5071557;28;20216;-71
2022/08/03 01:54:25;;;;;;;5.97;5.17;;;;;;;19.62;79.02;101518.94;5071092;28;20216;-71
2022/08/03 01:56:52;;;;;;;5.83;4.77;;;;;;;19.52;79.47;101519.84;5070240;28;20924;-71
2022/08/03 01:59:19;;;;;;;5.43;4.73;;;;;;;19.39;80.40;101524.25;5070710;28;20204;-71
2022/08/03 02:01:47;;;;;;;6.70;5.20;;;;;;;19.34;80.85;101517.41;5070411;28;20262;-70
2022/08/03 02:04:16;;;;;;;5.60;5.10;;;;;;;19.32;80.25;101514.78;5070426;28;20189;-71
2022/08/03 02:06:44;;;;;;;8.87;4.93;;;;;;;19.41;79.80;101517.34;5069165;28;20185;-71
2022/08/03 02:09:11;;;;;;;5.73;5.23;;;;;;;19.42;79.45;101516.47;5070480;28;20189;-70
2022/08/03 02:11:37;;;;;;;6.10;5.50;;;;;;;19.35;79.85;101516.50;5070223;28;20213;-71
2022/08/03 02:14:04;;;;;;;6.30;5.53;;;;;;;19.23;80.58;101525.22;5070475;28;20651;-71
2022/08/03 02:16:32;;;;;;;7.20;5.37;;;;;;;19.17;81.00;101511.38;5069985;28;20280;-69
2022/08/03 02:19:00;;;;;;;6.30;5.53;;;;;;;19.17;80.81;101513.97;5070126;28;20230;-69
2022/08/03 02:21:28;;;;;;;5.80;5.20;;;;;;;19.18;80.92;101511.38;5070094;28;20254;-70
2022/08/03 02:23:54;;;;;;;6.10;5.57;;;;;;;19.21;80.44;101508.75;5069882;28;20740;-69
2022/08/03 02:26:23;;;;;;;7.00;5.60;;;;;;;19.12;80.78;101505.34;5069707;28;20191;-71
2022/08/03 02:28:52;;;;;;;6.23;5.37;;;;;;;19.12;80.90;101510.53;5070198;28;20181;-68
2022/08/03 02:31:22;;;;;;;6.07;5.43;;;;;;;18.99;81.44;101504.53;5070103;28;20248;-71
2022/08/03 02:33:53;;;;;;;5.80;5.27;;;;;;;18.99;81.31;101508.84;5070448;28;20204;-71
2022/08/03 02:36:24;;;;;;;5.77;5.27;;;;;;;18.94;81.31;101511.50;5069328;28;20212;-71
2022/08/03 02:38:53;;;;;;;7.77;5.70;;;;;;;18.95;81.08;101500.22;5069507;28;20219;-70
2022/08/03 02:41:23;;;;;;;6.37;5.53;;;;;;;18.88;81.94;101495.91;5069302;28;20252;-69
2022/08/03 02:43:53;;;;;;;6.27;5.57;;;;;;;18.88;81.69;101505.47;5066191;28;20185;-71
2022/08/03 02:46:27;;;;;;;7.40;5.43;;;;;;;18.83;81.73;101499.41;5069774;28;20181;-71
2022/08/03 02:48:54;;;;;;;6.30;5.70;;;;;;;18.82;82.15;101503.72;5070079;28;20662;-70
2022/08/03 02:51:21;;;;;;;5.97;5.00;;;;;;;18.86;81.66;101500.25;5069373;28;20205;-70
2022/08/03 02:53:47;;;;;;;6.13;5.53;;;;;;;18.83;81.97;101507.22;5068028;28;20193;-71
2022/08/03 02:56:14;;;;;;;5.80;5.30;;;;;;;18.78;82.13;101507.22;5069299;28;20231;-70
2022/08/03 02:58:41;;;;;;;10.90;6.10;;;;;;;18.70;82.59;101503.75;5069246;28;20177;-70
2022/08/03 03:01:08;;;;;;;5.90;5.30;;;;;;;18.75;82.21;101506.34;5070403;28;20710;-71
2022/08/03 03:03:34;;;;;;;6.90;6.07;;;;;;;18.75;81.99;101496.81;5069675;28;20670;-69
2022/08/03 03:06:01;;;;;;;6.20;5.63;;;;;;;18.73;82.14;101502.88;5069902;28;20252;-71
2022/08/03 03:08:27;;;;;;;6.60;5.90;;;;;;;18.66;82.64;101502.03;5069083;28;20239;-69
2022/08/03 03:10:58;;;;;;;6.97;6.27;;;;;;;18.59;82.86;101499.47;5070555;28;20225;-71
2022/08/03 03:13:26;;;;;;;6.40;5.80;;;;;;;18.58;82.94;101497.75;5069258;28;20216;-70
2022/08/03 03:15:53;;;;;;;6.67;5.97;;;;;;;18.60;82.27;101498.63;5069251;28;20185;-71
2022/08/03 03:18:20;;;;;;;9.10;5.73;;;;;;;18.54;82.98;101501.22;5069800;28;20238;-71
2022/08/03 03:20:46;;;;;;;8.20;6.10;;;;;;;18.56;82.55;101495.16;5069638;28;20223;-68
2022/08/03 03:23:13;;;;;;;7.37;5.80;;;;;;;18.53;82.77;101497.78;5070093;28;20187;-70
2022/08/03 03:25:39;;;;;;;6.03;5.53;;;;;;;18.49;82.95;101502.97;5069135;28;20272;-70
2022/08/03 03:28:05;;;;;;;7.73;6.93;;;;;;;18.50;83.01;101500.38;5069002;28;20214;-70
2022/08/03 03:30:31;;;;;;;6.70;6.10;;;;;;;18.49;82.97;101500.38;5069024;28;20209;-70
2022/08/03 03:32:58;;;;;;;6.50;5.90;;;;;;;18.48;83.16;101504.72;5079979;28;20612;-71
2022/08/03 03:35:24;;;;;;;8.13;6.63;;;;;;;18.43;83.33;101503.81;5068936;28;20177;-71
2022/08/03 03:37:49;;;;;;;7.03;6.37;;;;;;;18.40;83.24;101501.25;5072202;28;20219;-71
2022/08/03 03:40:15;;;;;;;8.30;6.40;;;;;;;18.43;83.06;101505.56;5076126;28;20279;-71
2022/08/03 03:42:40;;;;;;;6.57;6.07;;;;;;;18.44;82.96;101502.97;5074465;28;20424;-71
2022/08/03 03:45:07;;;;;;;7.00;6.40;;;;;;;18.46;83.17;101492.59;5075833;28;20181;-71
2022/08/03 03:47:34;;;;;;;6.30;5.70;;;;;;;18.49;82.88;101506.44;5075728;28;20180;-71
2022/08/03 03:50:01;;;;;;;6.60;6.00;;;;;;;18.45;82.99;101506.44;5075480;28;20213;-69
2022/08/03 03:52:27;;;;;;;9.10;6.97;;;;;;;18.48;82.82;101511.63;5075477;28;20595;-71
2022/08/03 03:54:52;;;;;;;8.77;6.37;;;;;;;18.49;82.55;101510.75;5075648;28;20194;-71
2022/08/03 03:57:18;;;;;;;6.40;5.80;;;;;;;18.49;82.72;101509.03;5075478;28;20182;-69
2022/08/03 03:59:43;;;;;;;6.63;5.93;;;;;;;18.55;82.26;101502.94;5075913;28;20176;-71
2022/08/03 04:02:10;;;;;;;6.67;6.10;;;;;;;18.54;82.60;101503.81;5075364;28;20205;-71
2022/08/03 04:13:01;;;;;;;6.20;5.60;;;;;;;18.66;83.18;101503.78;5074932;28;20268;-71
2022/08/03 04:15:28;;;;;;;7.50;5.90;;;;;;;18.71;82.70;101497.72;5075431;28;20242;-70
2022/08/03 04:17:57;;;;;;;6.83;6.00;;;;;;;18.77;82.38;101497.69;5075034;28;20200;-70
2022/08/03 04:20:29;;;;;;;6.20;5.63;;;;;;;18.83;82.20;101499.41;5075031;28;20727;-71
2022/08/03 04:22:56;;;;;;;6.80;6.03;;;;;;;18.88;82.83;101498.50;5074794;28;20178;-71
2022/08/03 04:25:26;;;;;;;7.13;6.17;;;;;;;18.94;82.37;101500.22;5075547;28;20618;-69
2022/08/03 04:27:54;;;;;;;7.40;5.77;;;;;;;19.00;81.61;101503.66;5075142;28;20207;-70
2022/08/03 04:30:21;;;;;;;6.83;6.23;;;;;;;19.04;81.10;101495.00;5073932;28;20265;-71
2022/08/03 04:32:50;;;;;;;7.20;6.50;;;;;;;19.09;80.76;101492.38;5064718;28;20181;-70
2022/08/03 04:35:17;;;;;;;6.37;5.80;;;;;;;19.16;79.89;101504.47;5075426;28;20212;-71
2022/08/03 04:37:50;;;;;;;6.57;6.07;;;;;;;19.17;80.02;101504.44;5075205;28;20255;-71
2022/08/03 04:40:24;;;;;;;7.17;5.80;;;;;;;19.20;80.29;101501.81;5075590;28;20189;-71
2022/08/03 04:42:52;;;;;;;6.57;5.93;;;;;;;19.23;80.48;101508.78;5075547;28;20644;-70
2022/08/03 04:45:19;;;;;;;7.93;6.23;;;;;;;19.29;79.41;101503.53;5075691;28;20185;-71
2022/08/03 04:47:46;;;;;;;6.50;5.77;;;;;;;19.32;79.44;101504.41;5074918;28;20188;-71
2022/08/03 04:50:12;;;;;;;6.03;5.47;;;;;;;19.34;79.62;101507.00;5072376;28;20205;-70
2022/08/03 04:52:39;;;;;;;7.40;5.77;;;;;;;19.34;79.69;101509.59;5070545;28;20208;-71
2022/08/03 04:55:05;;;;;;;7.20;5.97;;;;;;;19.38;79.56;101508.69;5071959;28;20188;-71
2022/08/03 04:57:31;;;;;;;6.90;5.83;;;;;;;19.40;79.42;101513.00;5071960;28;20276;-70
2022/08/03 04:59:56;;;;;;;6.30;5.73;;;;;;;19.40;79.18;101502.59;5072491;28;20284;-70
2022/08/03 05:02:22;;;;;;;7.00;6.40;;;;;;;19.40;79.08;101512.16;5070456;28;20201;-70
2022/08/03 05:04:48;;;;;;;9.00;6.13;;;;;;;19.41;79.71;101512.16;5071911;28;20192;-70
2022/08/03 05:07:15;;;;;;;6.63;5.93;;;;;;;19.38;80.38;101517.34;5065873;28;20295;-68
2022/08/03 05:09:40;;;;;;;8.57;6.40;;;;;;;19.43;80.57;101514.75;5065586;28;20672;-71
2022/08/03 05:12:06;;;;;;;7.10;6.33;;;;;;;19.42;80.54;101520.78;5071780;28;20201;-71
2022/08/03 05:14:34;;;;;;;7.83;6.60;;;;;;;19.64;79.46;101514.59;5071839;28;20189;-71
2022/08/03 05:17:00;;;;;;;6.90;6.10;;;;;;;19.82;78.31;101509.25;5071358;28;20219;-71
2022/08/03 05:19:25;;;;;;;7.57;6.70;;;;;;;19.94;78.45;101516.97;5058244;28;20217;-71
2022/08/03 05:21:51;;;;;;;6.63;6.03;;;;;;;20.02;77.07;101507.34;5050243;28;20202;-70
2022/08/03 05:24:16;;;;;;;7.93;5.60;;;;;;;20.11;76.69;101517.72;5054992;28;20671;-71
2022/08/03 05:26:42;;;;;;;6.97;6.30;;;;;;;20.21;76.15;101514.16;5057032;28;20272;-71
2022/08/03 05:29:07;;;;;;;6.57;5.97;;;;;;;20.34;75.75;101511.44;5051446;28;20612;-71
2022/08/03 05:31:33;;;;;;;6.17;5.67;;;;;;;20.43;74.84;101513.09;5066756;28;20325;-70
2022/08/03 05:33:58;;;;;;;6.63;6.03;;;;;;;20.56;74.73;101515.56;5083085;28;20221;-71
2022/08/03 05:36:24;;;;;;;9.70;6.47;;;;;;;20.68;74.76;101520.63;5091554;28;20700;-71
2022/08/03 05:38:49;;;;;;;6.90;6.30;;;;;;;20.79;74.45;101507.47;5092714;28;20208;-70
2022/08/03 05:41:14;;;;;;;7.00;6.30;;;;;;;20.90;73.98;101513.44;5092005;28;20188;-70
2022/08/03 05:43:40;;;;;;;6.97;6.27;;;;;;;21.05;73.58;101519.34;5091744;28;20629;-71
2022/08/03 05:46:05;;;;;;;8.13;6.50;;;;;;;21.15;72.28;101515.72;5091416;28;20554;-70
2022/08/03 05:48:31;;;;;;;7.30;6.70;;;;;;;21.22;72.21;101512.19;5091179;28;20276;-71
2022/08/03 05:50:56;;;;;;;6.80;6.20;;;;;;;21.37;71.90;101516.31;5091057;28;20248;-71
2022/08/03 05:53:22;;;;;;;6.77;6.17;;;;;;;21.51;71.07;101512.63;5091305;28;20223;-71
2022/08/03 05:55:47;;;;;;;6.23;5.63;;;;;;;21.57;70.80;101509.94;5091311;28;20248;-70
2022/08/03 05:58:13;;;;;;;7.13;5.63;;;;;;;21.69;70.58;101504.56;5090872;28;20226;-71
2022/08/03 06:00:38;;;;;;;6.63;6.03;;;;;;;21.83;70.38;101506.97;5088174;28;20184;-71
2022/08/03 06:03:04;;;;;;;7.13;5.60;;;;;;;21.89;69.76;101510.31;5070825;28;20583;-69
2022/08/03 06:05:30;;;;;;;8.13;5.57;;;;;;;22.05;69.58;101508.31;5070623;28;20193;-71
2022/08/03 06:07:55;;;;;;;5.93;5.40;;;;;;;22.17;69.07;101515.97;5069215;28;20181;-71
2022/08/03 06:10:21;;;;;;;6.20;5.27;;;;;;;22.34;69.08;101508.69;5070585;28;20236;-72
2022/08/03 06:12:48;;;;;;;7.97;5.10;;;;;;;22.42;68.75;101507.66;5070841;28;20185;-70
2022/08/03 06:15:14;;;;;;;6.73;6.03;;;;;;;22.42;69.04;101512.00;5070833;28;20181;-71
2022/08/03 06:17:48;;;;;;;5.93;5.43;;;;;;;22.62;68.19;101512.56;5070496;28;20280;-72
2022/08/03 06:20:18;;;;;;;6.23;5.63;;;;;;;22.72;67.78;101503.66;5078780;28;20235;-71
2022/08/03 06:22:45;;;;;;;5.83;5.17;;;;;;;22.94;67.34;101511.91;5069252;28;20189;-72
2022/08/03 06:25:10;;;;;;;8.83;5.53;;;;;;;23.01;67.16;101503.91;5069078;28;20242;-71
2022/08/03 06:27:38;;;;;;;6.77;5.20;;;;;;;23.29;66.87;101502.47;5070129;28;20189;-72
2022/08/03 06:30:09;;;;;;;5.50;5.00;;;;;;;23.46;66.12;101497.72;5070119;28;20208;-72
2022/08/03 06:32:36;;;;;;;6.00;5.50;;;;;;;23.45;65.65;101502.97;5076225;28;20617;-71
2022/08/03 06:35:02;;;;;;;5.67;5.17;;;;;;;23.36;65.41;101501.44;5071859;28;20186;-71
2022/08/03 06:37:28;;;;;;;6.20;5.60;;;;;;;23.60;64.45;101508.72;5069935;28;20288;-71
2022/08/03 06:39:53;;;;;;;6.87;5.73;;;;;;;23.77;64.76;101506.59;5052050;28;20192;-71
2022/08/03 06:42:19;;;;;;;5.40;5.00;;;;;;;23.92;64.24;101505.38;5070045;28;20208;-71
2022/08/03 06:44:44;;;;;;;6.03;5.03;;;;;;;24.14;64.37;101507.44;5054854;28;20687;-71
2022/08/03 06:47:10;;;;;;;5.57;4.77;;;;;;;24.28;62.93;101507.94;5068121;28;20559;-71
2022/08/03 06:49:35;;;;;;;5.40;4.90;;;;;;;24.28;62.84;101513.16;5069997;28;20302;-70
2022/08/03 06:52:01;;;;;;;6.82;4.05;;;;;;;24.50;62.61;101509.06;5069695;28;20304;-71
2022/08/03 06:54:26;;;;;;;5.73;4.90;;;;;;;24.34;61.20;101506.88;5069729;28;20656;-71
2022/08/03 06:56:52;;;;;;;4.75;4.30;;;;;;;24.64;60.87;101516.59;5069526;28;20177;-70
2022/08/03 06:59:18;;;;;;;4.60;4.20;;;;;;;24.73;60.72;101505.84;5069641;28;20724;-71
2022/08/03 07:01:44;;;;;;;4.30;3.92;;;;;;;25.03;59.66;101508.47;5069428;28;20205;-71
2022/08/03 07:04:09;;;;;;;5.15;4.70;;;;;;;25.24;60.03;101509.59;5069773;28;20270;-71
2022/08/03 07:06:36;;;;;;;3.95;3.65;;;;;;;25.56;59.38;101502.47;5068148;28;20212;-72
2022/08/03 07:09:02;;;;;;;4.35;3.95;;;;;;;25.71;58.00;101509.88;5069622;28;20778;-71
2022/08/03 07:11:28;;;;;;;4.10;3.58;;;;;;;25.56;58.64;101506.88;5069178;28;20312;-71
2022/08/03 07:13:53;;;;;;;6.70;3.95;;;;;;;25.93;57.98;101508.28;5069063;28;20185;-72
2022/08/03 07:16:19;;;;;;;5.28;3.90;;;;;;;26.11;57.16;101507.69;5069121;28;20181;-71
2022/08/03 07:18:44;;;;;;;4.10;3.70;;;;;;;26.21;56.18;101513.50;5076997;28;20196;-71
2022/08/03 07:21:11;;;;;;;4.57;3.63;;;;;;;26.03;55.68;101507.09;5081166;28;20243;-72
2022/08/03 07:23:37;;;;;;;4.22;3.40;;;;;;;26.19;55.29;101505.66;5073759;28;20180;-68
2022/08/03 07:26:02;;;;;;;4.88;3.50;;;;;;;26.25;55.50;101504.59;5085531;28;20203;-72
2022/08/03 07:28:28;;;;;;;3.47;3.15;;;;;;;26.26;54.85;101503.69;5079454;28;20231;-71
2022/08/03 07:30:54;;;;;;;4.68;3.38;;;;;;;26.45;54.49;101503.00;5077912;28;20209;-71
2022/08/03 07:33:19;;;;;;;3.83;3.10;;;;;;;26.46;53.40;101509.97;5089657;28;20245;-71
2022/08/03 07:35:45;;;;;;;4.15;3.35;;;;;;;26.62;52.22;101502.44;5073478;28;20192;-72
2022/08/03 07:38:10;;;;;;;4.57;2.67;;;;;;;27.11;52.42;101504.94;5069119;28;20188;-71
2022/08/03 07:40:36;;;;;;;3.70;2.90;;;;;;;26.99;52.01;101508.88;5069332;28;20564;-72
2022/08/03 07:43:02;;;;;;;3.53;3.00;;;;;;;27.16;52.36;101509.13;5069265;28;20220;-70
2022/08/03 07:45:29;;;;;;;3.17;2.88;;;;;;;27.19;51.39;101516.94;5069465;28;20263;-71
2022/08/03 07:47:55;;;;;;;3.45;3.08;;;;;;;27.32;51.88;101510.31;5068900;28;20189;-72
2022/08/03 07:50:21;;;;;;;4.03;2.92;;;;;;;27.51;51.57;101508.66;5068983;28;20217;-70
2022/08/03 07:52:50;;;;;;;3.85;2.88;;;;;;;27.95;50.88;101509.53;5069053;28;20184;-71
2022/08/03 07:55:22;;;;;;;4.65;2.67;;;;;;;27.93;48.89;101511.34;5067813;28;20242;-70
2022/08/03 07:58:18;;;;;;;5.18;2.55;;;;;;;27.95;48.89;101504.25;5068849;28;20229;-70
2022/08/03 08:00:43;;;;;;;5.10;2.70;;;;;;;27.70;48.03;101517.53;5068771;28;20221;-72
2022/08/03 08:03:10;;;;;;;5.85;3.05;;;;;;;28.10;49.57;101506.25;5068996;28;20196;-72
2022/08/03 08:05:35;;;;;;;7.55;2.83;;;;;;;28.02;49.10;101514.47;5069048;28;20913;-71
2022/08/03 08:08:02;;;;;;;4.30;2.75;;;;;;;27.98;48.95;101507.63;5069030;28;20224;-73
2022/08/03 08:10:28;;;;;;;5.35;2.50;;;;;;;28.28;47.71;101506.31;5068675;28;20296;-71
2022/08/03 08:12:54;;;;;;;4.05;2.55;;;;;;;28.23;47.42;101504.81;5067884;28;20220;-70
2022/08/03 08:15:20;;;;;;;2.95;2.25;;;;;;;28.74;47.35;101498.13;5067039;28;20204;-71
2022/08/03 08:17:48;;;;;;;2.78;2.38;;;;;;;28.66;46.97;101500.28;5067173;28;20733;-72
2022/08/03 08:20:19;;;;;;;5.82;2.20;;;;;;;28.38;47.53;101499.75;5068373;28;20207;-72
2022/08/03 08:22:45;;;;;;;2.92;2.50;;;;;;;28.55;48.14;101494.59;5068315;28;20196;-72
2022/08/03 08:25:10;;;;;;;5.15;2.47;;;;;;;28.60;47.72;101504.97;5072297;28;20180;-73
2022/08/03 08:27:44;;;;;;;4.15;2.78;;;;;;;28.51;47.58;101502.72;5070894;28;20626;-73
2022/08/03 08:30:11;;;;;;;3.53;2.67;;;;;;;28.62;47.60;101496.06;5072363;28;20220;-73
2022/08/03 08:32:36;;;;;;;2.67;2.20;;;;;;;28.58;47.18;101496.25;5080630;28;20216;-73
2022/08/03 08:35:04;;;;;;;3.25;2.22;;;;;;;28.38;46.45;101499.75;5090829;28;20646;-73
2022/08/03 08:37:30;;;;;;;4.65;2.03;;;;;;;28.49;46.31;101497.53;5092398;28;20760;-73
2022/08/03 08:39:55;;;;;;;4.90;2.08;;;;;;;28.78;46.15;101496.22;5088253;28;20280;-70
2022/08/03 08:42:21;;;;;;;3.95;2.03;;;;;;;29.11;46.04;101498.19;5071997;28;20255;-72
2022/08/03 08:44:46;;;;;;;3.10;1.85;;;;;;;29.03;45.08;101494.22;5072394;28;20287;-73
2022/08/03 08:47:13;;;;;;;5.55;2.33;;;;;;;29.04;44.95;101499.41;5071881;28;20192;-70
2022/08/03 08:49:40;;;;;;;3.50;2.03;;;;;;;29.03;45.55;101502.13;5072527;28;20193;-73
2022/08/03 08:52:08;;;;;;;4.63;2.20;;;;;;;29.07;44.93;101482.59;5071639;28;20209;-73
2022/08/03 08:54:36;;;;;;;7.25;2.30;;;;;;;29.50;44.29;101490.19;5071839;28;20185;-72
2022/08/03 08:57:03;;;;;;;3.03;1.85;;;;;;;29.61;44.89;101487.94;5071544;28;20529;-73
2022/08/03 08:59:33;;;;;;;4.07;1.83;;;;;;;29.96;45.15;101495.81;5071939;28;20226;-71
2022/08/03 09:01:58;;;;;;;3.05;1.90;;;;;;;30.61;43.17;101491.59;5070491;28;20250;-73
2022/08/03 09:04:24;;;;;;;5.18;2.40;;;;;;;30.49;42.76;101501.03;5071529;28;20714;-73
2022/08/03 09:06:51;;;;;;;5.15;2.15;;;;;;;30.31;43.31;101499.34;5071354;28;20223;-73
2022/08/03 09:09:16;;;;;;;4.63;2.00;;;;;;;30.48;42.65;101496.66;5071748;28;20185;-71
2022/08/03 09:11:42;;;;;;;6.13;2.35;;;;;;;30.28;42.43;101496.00;5071365;28;20653;-73
2022/08/03 09:14:09;;;;;;;6.63;2.25;;;;;;;30.28;42.88;101499.50;5071390;28;20213;-72
2022/08/03 09:16:34;;;;;;;7.05;2.50;;;;;;;30.64;42.67;101494.94;5070861;28;20257;-73
2022/08/03 09:19:13;;;;;;;4.00;2.00;;;;;;;30.93;42.91;101486.31;5071813;28;20714;-71
2022/08/03 09:21:38;;;;;;;2.42;1.75;;;;;;;30.59;42.82;101494.31;5071208;28;20204;-72
2022/08/03 09:24:05;;;;;;;5.07;2.25;;;;;;;30.83;43.31;101490.41;5071210;28;20188;-70
2022/08/03 09:26:36;;;;;;;3.70;2.00;;;;;;;31.23;42.41;101484.69;5055155;28;20213;-73
2022/08/03 09:29:10;;;;;;;7.07;2.00;;;;;;;30.43;42.91;101493.41;5064886;28;20178;-72
2022/08/03 09:31:43;;;;;;;5.50;2.17;;;;;;;30.65;42.99;101494.00;5067948;28;20216;-72
2022/08/03 09:34:11;;;;;;;3.90;1.52;;;;;;;31.09;42.44;101487.19;5060748;28;20276;-72
2022/08/03 09:36:48;;;;;;;3.78;1.90;;;;;;;31.65;42.07;101476.94;5071228;28;20238;-71
2022/08/03 09:39:21;;;;;;;8.75;2.17;;;;;;;31.65;41.73;101484.88;5065943;28;20192;-72
2022/08/03 09:42:05;;;;;;;8.10;1.60;;;;;;;32.15;40.92;101480.16;5070866;28;20201;-72
2022/08/03 09:44:42;;;;;;;8.15;2.13;;;;;;;31.71;40.24;101492.47;5058405;28;20234;-72
2022/08/03 09:47:15;;;;;;;5.82;1.90;;;;;;;31.28;42.40;101477.31;5078754;28;20217;-71
2022/08/03 09:49:41;;;;;;;4.63;2.00;;;;;;;31.99;41.83;101475.88;5064637;28;20196;-71
2022/08/03 09:52:18;;;;;;;5.18;1.75;;;;;;;31.37;40.95;101490.06;5075959;28;20212;-72
2022/08/03 09:54:49;;;;;;;7.38;2.10;;;;;;;31.95;41.12;101484.94;5070031;28;20231;-71
2022/08/03 09:57:25;;;;;;;4.05;1.83;;;;;;;32.41;40.21;101476.81;5059767;28;20193;-71
2022/08/03 09:59:55;;;;;;;3.90;1.92;;;;;;;32.07;40.00;101478.91;5072997;28;20287;-70
2022/08/03 10:02:23;;;;;;;5.68;2.55;;;;;;;31.77;40.88;101478.06;5077554;28;20291;-70
2022/08/03 10:04:51;;;;;;;6.20;1.80;;;;;;;32.20;40.14;101471.91;5069780;28;20554;-72
2022/08/03 10:07:18;;;;;;;4.30;1.85;;;;;;;32.62;39.39;101475.50;5070175;28;20223;-70
2022/08/03 10:10:00;;;;;;;3.72;1.92;;;;;;;33.27;38.61;101466.94;5070114;28;20193;-72
2022/08/03 10:12:26;;;;;;;4.05;1.88;;;;;;;33.39;38.00;101465.31;5067663;28;20290;-72
2022/08/03 10:14:53;;;;;;;3.75;1.77;;;;;;;33.42;38.89;101475.75;5071438;28;20226;-73
2022/08/03 10:17:19;;;;;;;7.43;2.00;;;;;;;33.60;38.94;101466.56;5065034;28;20201;-73
2022/08/03 10:19:46;;;;;;;4.78;1.60;;;;;;;33.28;38.71;101465.13;5070927;28;20238;-72
2022/08/03 10:22:12;;;;;;;3.38;1.75;;;;;;;32.34;39.51;101475.50;5072358;28;20336;-73
2022/08/03 10:24:43;;;;;;;4.65;1.80;;;;;;;32.60;38.75;101469.44;5067252;28;20231;-73
2022/08/03 10:27:12;;;;;;;5.90;2.00;;;;;;;31.98;40.03;101482.09;5069343;28;20563;-74
2022/08/03 10:29:41;;;;;;;6.80;1.90;;;;;;;32.27;39.26;101471.50;5069928;28;20189;-73
2022/08/03 10:32:13;;;;;;;8.80;1.80;;;;;;;32.66;40.10;101465.56;5072308;28;20217;-75
2022/08/03 10:34:41;;;;;;;3.10;2.00;;;;;;;32.74;38.87;101464.13;5074269;28;20738;-74
2022/08/03 10:37:10;;;;;;;4.65;2.20;;;;;;;33.02;39.18;101458.84;5068071;28;20231;-74
2022/08/03 10:39:36;;;;;;;5.20;1.77;;;;;;;33.09;39.39;101457.47;5045823;28;20997;-71
2022/08/03 10:42:03;;;;;;;5.97;2.08;;;;;;;32.55;40.24;101460.06;5049835;28;20204;-73
2022/08/03 10:44:40;;;;;;;3.78;1.88;;;;;;;33.20;38.32;101460.28;5052733;28;20233;-76
2022/08/03 10:47:05;;;;;;;4.60;2.10;;;;;;;32.76;39.27;101467.53;5069171;28;20272;-74
2022/08/03 10:49:32;;;;;;;3.28;1.80;;;;;;;33.10;38.45;101461.00;5076389;28;20700;-74
2022/08/03 10:51:57;;;;;;;3.20;2.00;;;;;;;33.10;38.61;101450.38;5070217;28;20217;-73
2022/08/03 10:57:54;;;;;;;5.55;2.03;;;;;;;33.11;38.90;101447.59;5060829;28;20181;-75
2022/08/03 11:00:24;;;;;;;5.22;2.40;;;;;;;32.56;39.00;101448.50;5054870;28;20243;-75
2022/08/03 11:03:05;;;;;;;8.70;2.33;;;;;;;32.50;39.32;101460.34;5049803;28;20252;-75
2022/08/03 11:05:33;;;;;;;5.03;1.90;;;;;;;33.00;39.00;101452.75;5049624;28;20189;-72
2022/08/03 11:08:31;;;;;;;7.72;2.10;;;;;;;33.73;38.17;101446.16;5049576;28;20192;-74
2022/08/03 11:10:59;;;;;;;5.40;2.00;;;;;;;33.91;37.55;101442.31;5064297;28;20223;-72
2022/08/03 11:13:29;;;;;;;5.40;2.15;;;;;;;32.79;38.97;101440.84;5068314;28;20212;-70
2022/08/03 11:15:58;;;;;;;4.05;2.40;;;;;;;33.84;38.75;101439.22;5070957;28;20181;-70
2022/08/03 11:18:24;;;;;;;4.53;1.83;;;;;;;34.25;36.61;101439.06;5070506;28;20638;-72
2022/08/03 11:20:55;;;;;;;4.28;2.33;;;;;;;33.20;37.71;101444.34;5069840;28;20258;-72
2022/08/03 11:23:43;;;;;;;3.15;2.33;;;;;;;32.61;38.64;101449.06;5069378;28;20204;-71
2022/08/03 11:26:08;;;;;;;4.60;2.15;;;;;;;32.92;39.00;101432.97;5069497;28;20178;-71
2022/08/03 11:28:34;;;;;;;4.25;1.80;;;;;;;33.53;37.77;101436.88;5069677;28;20195;-71
2022/08/03 11:31:21;;;;;;;3.90;1.65;;;;;;;34.05;37.71;101432.44;5070048;28;20221;-72
2022/08/03 11:34:03;;;;;;;4.28;1.77;;;;;;;34.37;35.46;101430.25;5079516;28;20268;-72
2022/08/03 11:36:28;;;;;;;3.50;1.77;;;;;;;34.43;36.19;101428.00;5089274;28;20211;-71
2022/08/03 11:39:12;;;;;;;5.07;2.03;;;;;;;33.35;37.61;101440.75;5084679;28;20218;-71
2022/08/03 11:41:37;;;;;;;5.10;2.10;;;;;;;33.29;37.66;101434.94;5084288;28;20751;-72